プンタアレナス の空港の天気 - METARとTAF

プンタアレナス空港 ( SCCI / PUQ ) - チリ プンタアレナス
飛行場実況気象(Metar)
観測時間05/26 20:00 CLT (05/27 00:00 UTC)
風向・風速西南西 8m/s
視程10km以上
天気現象
全天の4割程度の雲 雲底高度 910m
気温3℃
湿度70%
気圧1012hPa
METARSCCI 270000Z 25015KT 9999 SCT030 03/M02 Q1012 NOSIG
過去の天気等 Google飛行場航空写真 Wunderground天気予報

過去48時間のMETAR

飛行場予報(TAF)
発表時間: 5/26 18:09 CLT (5/26 22:09 UTC)
予報対象時間: 26日20時 CLT ~ 27日20時 CLT
風向・風速西南西 12m/s
視程9000m
全天の4割程度の雲 雲底高度 910m
26日20時 CLT ~ 26日23時 CLT に一時的に
視程5000m
天気現象弱いしゅう雨 弱いしゅう雨雪
全天の8割程度の雲 雲底高度 610m
27日14時 CLT ~ 27日20時 CLT に一時的に
視程5000m
天気現象弱いしゅう雨
全天の8割程度の雲 雲底高度 610m
TAF SCCI 262209Z 2700/2800 25023KT 9000 SCT030 TN03/2711Z TX06/2718Z
TEMPO 2700/2703 5000 -SHRA -SHRASN BKN020
TEMPO 2718/2800 5000 -SHRA BKN020